KSSF

Stinson Municipal Airport

San Antonio, Texas, USA
METAR KSSF 221653Z 14003KT 10SM CLR 29/21 A2999 RMK AO2 SLP145 T02940211
Observed Flight Rules
May-22 @ 16:53 UTC (51 minutes ago) Visual Flight Rules
Wind Visibility Clouds
140° at 3 knots 10 miles
  • Clear skies
Temperatures Readings
Current 29°C / 84°F
Dewpoint 21°C / 70°F
Humidity 62%
Altimeter 29.99" Hg
Pressure 1014.5 hPa
Elevation 176
METAR KSSF 221653Z 14003KT 10SM CLR 29/21 A2999 RMK AO2 SLP145 T02940211
Observed Flight Rules
May-22 @ 16:53 UTC
(51 minutes ago)
VFR
Wind Visibility
140° at 3 knots 10 miles
Clouds
  • Clear skies
Temperature Dewpoint
29°C / 84°F 21°C / 70°F
Humidity Altimeter Pressure
62% 29.99" Hg 1014.5 hPa